Flight Track Log - Related Links

Times and Time Zones

All times are in EDT time to prevent confusion due to time zone crossing. See the FDX584 flight status page for this flight to view local times or setup timezone preferences in your user account.

Time Position Orientation Groundspeed Altitude Reporting Facility
EDT Latitude Longitude Course Direction KTS MPH feet Rate Location/Type
Tue 06:00:56 PM 35.0167 -89.9667 219° Southwest 153 176 1,100  Level KMEM
Tue 06:02:20 PM 34.9667 -90.0167 219° Southwest 243 280 3,200 1,957 Climbing KMEM
Tue 06:03:14 PM 35.0167 -90.0833 312° West 303 349 5,600 2,632 Climbing KMEM
Tue 06:04:14 PM 35.1167 -90.0833 360° North 314 361 8,200 2,086 Climbing KMEM
Tue 06:06:44 PM 35.3553 -90.0669 North 370 426 12,900 1,943 Climbing Memphis Center
Tue 06:07:44 PM 35.4700 -90.0614 North 395 455 15,000 2,150 Climbing Memphis Center
Tue 06:08:44 PM 35.5869 -90.0533 North 408 470 17,200 2,000 Climbing Memphis Center
Tue 06:09:44 PM 35.6975 -90.0656 355° North 413 475 19,000 1,700 Climbing Memphis Center
Tue 06:10:44 PM 35.7936 -90.1447 326° Northwest 391 450 20,600 1,650 Climbing Memphis Center
Tue 06:11:44 PM 35.8542 -90.2622 302° West 381 438 22,300 1,600 Climbing Memphis Center
Tue 06:12:44 PM 35.9147 -90.3853 301° West 397 457 23,800 1,300 Climbing Memphis Center
Tue 06:13:44 PM 35.9814 -90.5083 304° West 418 481 24,900 1,150 Climbing Memphis Center
Tue 06:14:44 PM 36.0436 -90.6367 301° West 430 495 26,100 1,300 Climbing Memphis Center
Tue 06:15:44 PM 36.1078 -90.7681 301° West 442 509 27,500 1,250 Climbing Memphis Center
Tue 06:16:44 PM 36.1761 -90.8994 303° West 453 521 28,600 1,000 Climbing Memphis Center
Tue 06:17:44 PM 36.2422 -91.0336 301° West 453 521 29,500 1,050 Climbing Memphis Center
Tue 06:18:44 PM 36.3103 -91.1683 302° West 453 521 30,700 750 Climbing Memphis Center
Tue 06:19:44 PM 36.3761 -91.3028 301° West 453 521 31,000 600 Climbing Memphis Center
Tue 06:20:44 PM 36.4417 -91.4403 301° West 458 527 31,900 500 Climbing Memphis Center
Tue 06:21:44 PM 36.5053 -91.5547 305° West 451 519 32,000 36 Climbing Memphis Center
Tue 06:23:30 PM 36.6203 -91.7944 301° West 450 518 32,000  Level Kansas City Center
Tue 06:24:31 PM 36.6856 -91.9253 302° West 447 514 32,000  Level Kansas City Center
Tue 06:30:33 PM 37.0770 -92.7380 302° West 452 520 32,000  Level FlightAware ADS-B
Tue 06:31:13 PM 37.1190 -92.8270 301° West 451 519 32,000  Level FlightAware ADS-B
Tue 06:32:08 PM 37.1760 -92.9490 300° West 452 520 32,000  Level FlightAware ADS-B
Tue 06:32:53 PM 37.2250 -93.0530 301° West 451 519 32,000  Level FlightAware ADS-B
Tue 06:33:28 PM 37.2620 -93.1300 301° West 452 520 32,000  Level FlightAware ADS-B
Tue 06:34:23 PM 37.3180 -93.2510 300° West 452 520 32,000 44 Level FlightAware ADS-B
Tue 06:35:43 PM 37.3240 -93.2180 77° East 468 539 32,100  Climbing FlightAware ADS-B
Tue 06:36:13 PM 37.2830 -93.1750 140° Southeast 475 547 32,000 -560 Descending FlightAware ADS-B
Tue 06:36:58 PM 37.6100 -93.4750 324° Northwest 477 549 31,400 -847 Descending FlightAware ADS-B
Tue 06:37:38 PM 37.6850 -93.5170 336° Northwest 479 551 30,800 -947 Descending FlightAware ADS-B
Tue 06:38:33 PM 37.8020 -93.5820 336° Northwest 482 555 29,900 -568 Descending FlightAware ADS-B
Tue 06:39:13 PM 37.8730 -93.6220 336° Northwest 482 555 29,900 -1,059 Level FlightAware ADS-B
Tue 06:39:58 PM 37.9790 -93.6810 336° Northwest 488 562 28,400 -1,129 Descending FlightAware ADS-B
Tue 06:40:38 PM 38.0490 -93.7200 336° Northwest 488 562 28,300 -960 Descending FlightAware ADS-B
Tue 06:41:13 PM 38.1320 -93.7680 336° Northwest 491 565 27,200 -1,425 Descending FlightAware ADS-B
Tue 06:41:58 PM 38.2280 -93.8220 336° Northwest 492 566 26,400 -1,137 Descending FlightAware ADS-B
Tue 06:42:48 PM 38.3350 -93.8830 336° Northwest 453 521 25,400 -1,579 Descending FlightAware ADS-B
Tue 06:43:33 PM 38.4090 -93.9240 337° Northwest 437 503 23,900 -1,000 Descending FlightAware ADS-B
Tue 06:44:18 PM 38.4860 -93.9700 335° Northwest 437 503 23,900 -2,147 Level FlightAware ADS-B
Tue 06:45:08 PM 38.5830 -94.0240 336° Northwest 407 468 20,500 -3,200 Descending FlightAware ADS-B
Tue 06:45:48 PM 38.6510 -94.0640 335° Northwest 397 457 19,100 -1,950 Descending FlightAware ADS-B
Tue 06:46:28 PM 38.7160 -94.1190 327° Northwest 376 433 17,900 -1,835 Descending FlightAware ADS-B
Tue 06:47:13 PM 38.7740 -94.1810 320° Northwest 377 434 16,500 -1,906 Descending FlightAware ADS-B
Tue 06:47:53 PM 38.8270 -94.2370 321° Northwest 371 427 15,200 -1,906 Descending FlightAware ADS-B
Tue 06:48:38 PM 38.8860 -94.3010 320° Northwest 366 421 13,800 -1,835 Descending FlightAware ADS-B
Tue 06:49:18 PM 38.9380 -94.3570 320° Northwest 364 419 12,600 -1,200 Descending FlightAware ADS-B
Tue 06:49:58 PM 38.9890 -94.4120 320° Northwest 343 395 12,200 -282 Descending FlightAware ADS-B
Tue 06:50:43 PM 39.0440 -94.4730 319° Northwest 345 397 12,200  Level FlightAware ADS-B
Tue 06:51:23 PM 39.0930 -94.5260 320° Northwest 342 394 12,200 -212 Level FlightAware ADS-B
Tue 06:52:08 PM 39.1440 -94.5810 320° Northwest 317 365 11,900 -988 Descending FlightAware ADS-B
Tue 06:52:48 PM 39.1900 -94.6290 321° Northwest 322 371 10,800 -1,527 Descending FlightAware ADS-B
Tue 06:53:03 PM 39.2070 -94.6390 335° Northwest 327 376 10,500 -1,500 Descending FlightAware ADS-B
Tue 06:53:28 PM 39.2500 -94.6330 North 324 373 9,800 -1,745 Descending FlightAware ADS-B
Tue 06:53:58 PM 39.2940 -94.6210 12° North 318 366 8,900 -1,745 Descending FlightAware ADS-B
Tue 06:54:23 PM 39.3260 -94.6100 15° North 311 358 8,200 -1,855 Descending FlightAware ADS-B
Tue 06:54:53 PM 39.3660 -94.5960 15° North 304 350 7,200 -2,133 Descending FlightAware ADS-B
Tue 06:55:08 PM 39.3900 -94.5880 14° North 301 346 6,600 -2,100 Descending FlightAware ADS-B
Tue 06:55:33 PM 39.4200 -94.5780 14° North 297 342 5,800 -1,527 Descending FlightAware ADS-B
Tue 06:56:03 PM 39.4620 -94.5640 14° North 291 335 5,200 -655 Descending FlightAware ADS-B
Tue 06:56:28 PM 39.4930 -94.5570 10° North 291 335 5,200 -1,357 Level FlightAware ADS-B
Tue 06:57:27 PM 39.5167 -94.6500 10° North 219 252 3,300 -1,109 Descending Kansas City TRACON
Tue 06:58:27 PM 39.4833 -94.6667 201° Southwest 154 177 3,000 -150 Descending Kansas City TRACON
Tue 06:59:27 PM 39.4333 -94.6833 194° South 149 171 3,000 -250 Level Kansas City TRACON
Tue 07:00:27 PM 39.4000 -94.7000 201° Southwest 149 171 2,500 -650 Descending Kansas City TRACON
Tue 07:01:27 PM 39.3667 -94.7167 201° Southwest 129 148 1,700 -706 Descending Kansas City TRACON
Tue 07:02:43 PM 39.3131 -94.7233 185° South 136 157 900 -632 Descending Kansas City Center

Login

Don't have an account? Register now (free) for customized features, flight alerts, and more!